sensor_id;sensor_type;location;lat;lon;timestamp;pressure;altitude;pressure_sealevel;temperature;humidity
68525;BME280;55524;51.380;13.372;2022-08-18T00:04:37;100015.69;;;20.43;60.80
68525;BME280;55524;51.380;13.372;2022-08-18T00:07:09;100010.72;;;20.38;60.94
68525;BME280;55524;51.380;13.372;2022-08-18T00:09:38;100015.97;;;20.39;61.60
68525;BME280;55524;51.380;13.372;2022-08-18T00:12:07;100024.03;;;20.39;63.82
68525;BME280;55524;51.380;13.372;2022-08-18T00:14:34;100014.16;;;20.40;62.61
68525;BME280;55524;51.380;13.372;2022-08-18T00:17:00;100012.69;;;20.36;62.72
68525;BME280;55524;51.380;13.372;2022-08-18T00:19:27;100021.41;;;20.28;63.25
68525;BME280;55524;51.380;13.372;2022-08-18T00:21:53;100009.72;;;20.18;61.37
68525;BME280;55524;51.380;13.372;2022-08-18T00:24:19;99994.91;;;20.03;59.91
68525;BME280;55524;51.380;13.372;2022-08-18T00:26:46;99995.19;;;20.00;59.45
68525;BME280;55524;51.380;13.372;2022-08-18T00:29:12;100001.66;;;19.97;60.03
68525;BME280;55524;51.380;13.372;2022-08-18T00:31:38;100005.69;;;19.92;61.02
68525;BME280;55524;51.380;13.372;2022-08-18T00:34:04;100006.22;;;19.85;61.30
68525;BME280;55524;51.380;13.372;2022-08-18T00:36:32;100004.03;;;19.79;61.62
68525;BME280;55524;51.380;13.372;2022-08-18T00:39:00;100008.78;;;19.76;60.73
68525;BME280;55524;51.380;13.372;2022-08-18T00:41:26;99999.59;;;19.69;61.52
68525;BME280;55524;51.380;13.372;2022-08-18T00:43:54;99998.00;;;19.66;60.69
68525;BME280;55524;51.380;13.372;2022-08-18T00:46:35;99992.63;;;19.66;61.23
68525;BME280;55524;51.380;13.372;2022-08-18T00:49:02;99989.44;;;19.61;61.26
68525;BME280;55524;51.380;13.372;2022-08-18T00:51:42;99992.25;;;19.59;61.51
68525;BME280;55524;51.380;13.372;2022-08-18T00:56:51;99985.81;;;19.62;60.86
68525;BME280;55524;51.380;13.372;2022-08-18T00:59:27;100001.03;;;19.73;62.72
68525;BME280;55524;51.380;13.372;2022-08-18T01:01:59;99980.53;;;19.72;61.61
68525;BME280;55524;51.380;13.372;2022-08-18T01:04:52;99985.59;;;19.86;60.50
68525;BME280;55524;51.380;13.372;2022-08-18T01:07:27;99987.00;;;19.80;61.41
68525;BME280;55524;51.380;13.372;2022-08-18T01:09:56;100009.53;;;19.78;64.08
68525;BME280;55524;51.380;13.372;2022-08-18T01:12:28;99998.81;;;19.78;62.23
68525;BME280;55524;51.380;13.372;2022-08-18T01:14:54;100002.59;;;19.75;62.64
68525;BME280;55524;51.380;13.372;2022-08-18T01:17:22;99997.13;;;19.77;62.11
68525;BME280;55524;51.380;13.372;2022-08-18T01:20:12;100009.06;;;19.73;62.19
68525;BME280;55524;51.380;13.372;2022-08-18T01:25:32;100017.00;;;19.63;62.62
68525;BME280;55524;51.380;13.372;2022-08-18T01:28:17;100013.38;;;19.64;62.45
68525;BME280;55524;51.380;13.372;2022-08-18T01:30:51;100021.13;;;19.67;64.38
68525;BME280;55524;51.380;13.372;2022-08-18T01:33:20;100029.78;;;19.71;65.87
68525;BME280;55524;51.380;13.372;2022-08-18T01:35:48;100024.66;;;19.68;65.74
68525;BME280;55524;51.380;13.372;2022-08-18T01:38:19;100004.94;;;19.57;63.39
68525;BME280;55524;51.380;13.372;2022-08-18T01:40:45;100004.50;;;19.41;63.50
68525;BME280;55524;51.380;13.372;2022-08-18T01:43:13;100014.72;;;19.36;66.81
68525;BME280;55524;51.380;13.372;2022-08-18T01:45:40;100006.56;;;19.26;66.25
68525;BME280;55524;51.380;13.372;2022-08-18T01:48:07;99971.75;;;19.26;61.51
68525;BME280;55524;51.380;13.372;2022-08-18T01:50:35;99966.75;;;19.33;61.20
68525;BME280;55524;51.380;13.372;2022-08-18T01:53:04;99972.94;;;19.45;61.34
68525;BME280;55524;51.380;13.372;2022-08-18T01:55:40;99972.41;;;19.62;61.11
68525;BME280;55524;51.380;13.372;2022-08-18T01:58:10;99975.94;;;19.62;61.96
68525;BME280;55524;51.380;13.372;2022-08-18T02:00:37;99973.16;;;19.64;61.72
68525;BME280;55524;51.380;13.372;2022-08-18T02:03:07;99969.94;;;19.70;61.60
68525;BME280;55524;51.380;13.372;2022-08-18T02:05:37;99971.16;;;19.77;61.83
68525;BME280;55524;51.380;13.372;2022-08-18T02:08:05;99970.41;;;19.75;61.94
68525;BME280;55524;51.380;13.372;2022-08-18T02:10:32;99976.97;;;19.82;61.79
68525;BME280;55524;51.380;13.372;2022-08-18T02:12:58;99980.44;;;19.73;62.25
68525;BME280;55524;51.380;13.372;2022-08-18T02:15:24;99992.13;;;19.61;63.79
68525;BME280;55524;51.380;13.372;2022-08-18T02:17:51;99989.22;;;19.53;65.57
68525;BME280;55524;51.380;13.372;2022-08-18T02:20:18;99976.22;;;19.48;62.68
68525;BME280;55524;51.380;13.372;2022-08-18T02:22:46;99989.34;;;19.40;63.61
68525;BME280;55524;51.380;13.372;2022-08-18T02:25:14;99997.69;;;19.37;64.81
68525;BME280;55524;51.380;13.372;2022-08-18T02:27:41;99994.84;;;19.38;64.98
68525;BME280;55524;51.380;13.372;2022-08-18T02:30:12;99989.84;;;19.45;64.18
68525;BME280;55524;51.380;13.372;2022-08-18T02:32:39;99997.91;;;19.45;65.08
68525;BME280;55524;51.380;13.372;2022-08-18T02:35:06;99986.19;;;19.46;64.57
68525;BME280;55524;51.380;13.372;2022-08-18T02:37:32;99999.00;;;19.42;66.41
68525;BME280;55524;51.380;13.372;2022-08-18T02:39:59;99991.19;;;19.39;65.53
68525;BME280;55524;51.380;13.372;2022-08-18T02:42:26;99997.53;;;19.38;68.55
68525;BME280;55524;51.380;13.372;2022-08-18T02:44:53;99998.53;;;19.37;69.01
68525;BME280;55524;51.380;13.372;2022-08-18T02:47:20;99988.78;;;19.36;68.24
68525;BME280;55524;51.380;13.372;2022-08-18T02:49:47;99985.50;;;19.33;67.16
68525;BME280;55524;51.380;13.372;2022-08-18T02:52:13;99981.22;;;19.30;66.70
68525;BME280;55524;51.380;13.372;2022-08-18T02:54:40;99976.84;;;19.29;66.84
68525;BME280;55524;51.380;13.372;2022-08-18T02:57:08;99981.97;;;19.32;67.87
68525;BME280;55524;51.380;13.372;2022-08-18T02:59:36;99985.13;;;19.37;70.15
68525;BME280;55524;51.380;13.372;2022-08-18T03:02:04;99978.06;;;19.36;67.93
68525;BME280;55524;51.380;13.372;2022-08-18T03:04:32;99979.63;;;19.39;67.73
68525;BME280;55524;51.380;13.372;2022-08-18T03:07:02;99972.09;;;19.44;67.95
68525;BME280;55524;51.380;13.372;2022-08-18T03:09:30;99974.16;;;19.40;67.86
68525;BME280;55524;51.380;13.372;2022-08-18T03:11:57;99964.28;;;19.41;67.00
68525;BME280;55524;51.380;13.372;2022-08-18T03:14:24;99961.59;;;19.41;67.33
68525;BME280;55524;51.380;13.372;2022-08-18T03:16:50;99959.03;;;19.39;67.30
68525;BME280;55524;51.380;13.372;2022-08-18T03:19:17;99946.47;;;19.40;66.54
68525;BME280;55524;51.380;13.372;2022-08-18T03:21:45;99957.19;;;19.40;68.15
68525;BME280;55524;51.380;13.372;2022-08-18T03:24:12;99952.50;;;19.32;68.83
68525;BME280;55524;51.380;13.372;2022-08-18T03:26:41;99960.78;;;19.29;67.68
68525;BME280;55524;51.380;13.372;2022-08-18T03:29:08;99964.69;;;19.25;69.60
68525;BME280;55524;51.380;13.372;2022-08-18T03:31:35;99954.69;;;19.16;66.70
68525;BME280;55524;51.380;13.372;2022-08-18T03:34:05;99963.25;;;19.10;67.41
68525;BME280;55524;51.380;13.372;2022-08-18T03:36:32;99958.13;;;18.96;66.23
68525;BME280;55524;51.380;13.372;2022-08-18T03:39:06;99970.91;;;18.92;68.56
68525;BME280;55524;51.380;13.372;2022-08-18T03:41:33;99953.75;;;18.83;65.71
68525;BME280;55524;51.380;13.372;2022-08-18T03:44:01;99959.94;;;18.73;66.54
68525;BME280;55524;51.380;13.372;2022-08-18T03:46:28;99962.25;;;18.66;66.26
68525;BME280;55524;51.380;13.372;2022-08-18T03:48:56;99966.84;;;18.53;67.97
68525;BME280;55524;51.380;13.372;2022-08-18T03:51:26;99974.16;;;18.51;68.64
68525;BME280;55524;51.380;13.372;2022-08-18T03:53:54;99975.25;;;18.48;69.36
68525;BME280;55524;51.380;13.372;2022-08-18T03:56:24;99983.25;;;18.48;70.91
68525;BME280;55524;51.380;13.372;2022-08-18T03:59:10;99971.94;;;18.44;71.00
68525;BME280;55524;51.380;13.372;2022-08-18T04:01:39;99968.19;;;18.47;70.33
68525;BME280;55524;51.380;13.372;2022-08-18T04:04:08;99971.47;;;18.51;71.49
68525;BME280;55524;51.380;13.372;2022-08-18T04:06:43;99967.59;;;18.55;71.02
68525;BME280;55524;51.380;13.372;2022-08-18T04:09:12;99970.03;;;18.58;71.18
68525;BME280;55524;51.380;13.372;2022-08-18T04:11:40;99967.09;;;18.61;69.54
68525;BME280;55524;51.380;13.372;2022-08-18T04:14:15;99963.94;;;18.67;69.06
68525;BME280;55524;51.380;13.372;2022-08-18T04:16:43;99965.31;;;18.73;70.04
68525;BME280;55524;51.380;13.372;2022-08-18T04:19:10;99958.50;;;18.80;69.31
68525;BME280;55524;51.380;13.372;2022-08-18T04:21:40;99957.91;;;18.87;69.60
68525;BME280;55524;51.380;13.372;2022-08-18T04:24:08;99958.00;;;19.08;67.99
68525;BME280;55524;51.380;13.372;2022-08-18T04:26:40;99971.66;;;19.16;68.91
68525;BME280;55524;51.380;13.372;2022-08-18T04:29:09;99960.28;;;19.24;69.05
68525;BME280;55524;51.380;13.372;2022-08-18T04:31:35;99972.31;;;19.41;68.51
68525;BME280;55524;51.380;13.372;2022-08-18T04:34:02;99979.13;;;19.45;71.93
68525;BME280;55524;51.380;13.372;2022-08-18T04:36:30;99969.41;;;19.44;69.08
68525;BME280;55524;51.380;13.372;2022-08-18T04:38:59;99960.44;;;19.55;66.33
68525;BME280;55524;51.380;13.372;2022-08-18T04:41:26;99953.75;;;19.60;66.58
68525;BME280;55524;51.380;13.372;2022-08-18T04:44:04;99981.97;;;19.76;69.14
68525;BME280;55524;51.380;13.372;2022-08-18T04:46:35;99960.16;;;19.80;65.65
68525;BME280;55524;51.380;13.372;2022-08-18T04:49:02;99958.66;;;19.87;64.89
68525;BME280;55524;51.380;13.372;2022-08-18T04:51:29;99975.94;;;19.95;66.54
68525;BME280;55524;51.380;13.372;2022-08-18T04:53:56;99981.91;;;19.98;67.61
68525;BME280;55524;51.380;13.372;2022-08-18T04:56:30;99991.84;;;20.07;69.54
68525;BME280;55524;51.380;13.372;2022-08-18T04:59:02;99988.66;;;20.13;68.63
68525;BME280;55524;51.380;13.372;2022-08-18T05:01:34;99987.16;;;20.21;67.98
68525;BME280;55524;51.380;13.372;2022-08-18T05:04:04;99984.81;;;20.27;66.38
68525;BME280;55524;51.380;13.372;2022-08-18T05:06:30;99979.50;;;20.37;64.58
68525;BME280;55524;51.380;13.372;2022-08-18T05:09:01;99998.22;;;20.48;65.59
68525;BME280;55524;51.380;13.372;2022-08-18T05:11:30;99987.56;;;20.58;64.70
68525;BME280;55524;51.380;13.372;2022-08-18T05:14:00;99999.94;;;20.70;65.21
68525;BME280;55524;51.380;13.372;2022-08-18T05:16:28;100005.63;;;20.77;65.15
68525;BME280;55524;51.380;13.372;2022-08-18T05:18:57;100001.69;;;20.81;62.53
68525;BME280;55524;51.380;13.372;2022-08-18T05:21:24;99999.31;;;20.87;61.75
68525;BME280;55524;51.380;13.372;2022-08-18T05:23:51;99985.22;;;20.95;61.20
68525;BME280;55524;51.380;13.372;2022-08-18T05:26:18;99993.47;;;21.13;61.29
68525;BME280;55524;51.380;13.372;2022-08-18T05:28:45;99993.97;;;21.28;61.29
68525;BME280;55524;51.380;13.372;2022-08-18T05:31:17;99995.31;;;21.43;61.34
68525;BME280;55524;51.380;13.372;2022-08-18T05:33:49;100003.13;;;21.56;61.47
68525;BME280;55524;51.380;13.372;2022-08-18T05:39:20;99976.81;;;21.89;59.10
68525;BME280;55524;51.380;13.372;2022-08-18T05:41:56;99980.47;;;21.97;59.16
68525;BME280;55524;51.380;13.372;2022-08-18T05:44:35;99976.84;;;22.18;58.29
68525;BME280;55524;51.380;13.372;2022-08-18T05:49:32;99963.44;;;22.55;56.87
68525;BME280;55524;51.380;13.372;2022-08-18T05:52:06;99955.75;;;22.70;56.48
68525;BME280;55524;51.380;13.372;2022-08-18T05:54:44;99953.38;;;22.84;55.66
68525;BME280;55524;51.380;13.372;2022-08-18T05:57:37;99948.84;;;22.95;55.65
68525;BME280;55524;51.380;13.372;2022-08-18T06:00:06;99959.44;;;23.06;55.16
68525;BME280;55524;51.380;13.372;2022-08-18T06:05:31;99944.38;;;23.31;53.36
68525;BME280;55524;51.380;13.372;2022-08-18T06:08:09;99938.63;;;23.44;53.42
68525;BME280;55524;51.380;13.372;2022-08-18T06:10:39;99939.66;;;23.61;54.21
68525;BME280;55524;51.380;13.372;2022-08-18T06:13:09;99940.13;;;23.74;53.47
68525;BME280;55524;51.380;13.372;2022-08-18T06:23:40;99932.44;;;24.41;51.13
68525;BME280;55524;51.380;13.372;2022-08-18T06:31:47;99927.78;;;24.85;49.72
68525;BME280;55524;51.380;13.372;2022-08-18T06:34:34;99913.66;;;24.99;47.58
68525;BME280;55524;51.380;13.372;2022-08-18T06:37:18;99910.41;;;24.96;47.49
68525;BME280;55524;51.380;13.372;2022-08-18T06:39:48;99923.47;;;25.09;48.35
68525;BME280;55524;51.380;13.372;2022-08-18T06:42:23;99937.41;;;25.22;49.16
68525;BME280;55524;51.380;13.372;2022-08-18T06:45:02;99927.28;;;25.24;48.67
68525;BME280;55524;51.380;13.372;2022-08-18T06:47:53;99911.94;;;25.49;47.26
68525;BME280;55524;51.380;13.372;2022-08-18T06:50:26;99915.03;;;25.70;47.72
68525;BME280;55524;51.380;13.372;2022-08-18T06:52:58;99907.44;;;25.82;46.90
68525;BME280;55524;51.380;13.372;2022-08-18T06:58:24;99903.53;;;26.17;46.65
68525;BME280;55524;51.380;13.372;2022-08-18T07:03:18;99893.31;;;26.52;44.85
68525;BME280;55524;51.380;13.372;2022-08-18T07:06:08;99925.63;;;26.70;46.86
68525;BME280;55524;51.380;13.372;2022-08-18T07:08:43;99899.66;;;26.76;44.38
68525;BME280;55524;51.380;13.372;2022-08-18T07:13:44;99891.75;;;27.05;42.11
68525;BME280;55524;51.380;13.372;2022-08-18T07:18:52;99873.84;;;27.50;41.82
68525;BME280;55524;51.380;13.372;2022-08-18T07:21:28;99871.91;;;27.59;41.45
68525;BME280;55524;51.380;13.372;2022-08-18T07:24:20;99889.75;;;27.84;43.91
68525;BME280;55524;51.380;13.372;2022-08-18T07:27:20;99896.75;;;28.16;42.83
68525;BME280;55524;51.380;13.372;2022-08-18T07:38:37;99875.53;;;29.30;39.08
68525;BME280;55524;51.380;13.372;2022-08-18T07:41:40;99852.06;;;29.72;36.99
68525;BME280;55524;51.380;13.372;2022-08-18T07:47:26;99839.00;;;30.45;35.35
68525;BME280;55524;51.380;13.372;2022-08-18T07:49:56;99842.75;;;30.79;35.06
68525;BME280;55524;51.380;13.372;2022-08-18T07:52:35;99841.59;;;31.01;34.64
68525;BME280;55524;51.380;13.372;2022-08-18T07:55:06;99855.78;;;31.38;34.86
68525;BME280;55524;51.380;13.372;2022-08-18T07:57:55;99855.25;;;30.67;34.52
68525;BME280;55524;51.380;13.372;2022-08-18T08:00:28;99882.66;;;30.45;37.89
68525;BME280;55524;51.380;13.372;2022-08-18T08:03:53;99864.13;;;30.12;36.72
68525;BME280;55524;51.380;13.372;2022-08-18T08:08:53;99877.78;;;30.41;36.57
68525;BME280;55524;51.380;13.372;2022-08-18T08:26:18;99878.38;;;30.08;38.03
68525;BME280;55524;51.380;13.372;2022-08-18T08:34:14;99872.69;;;29.81;37.22
68525;BME280;55524;51.380;13.372;2022-08-18T08:36:44;99877.50;;;29.79;37.44
68525;BME280;55524;51.380;13.372;2022-08-18T08:39:23;99878.41;;;29.65;38.80
68525;BME280;55524;51.380;13.372;2022-08-18T08:42:00;99877.94;;;29.40;39.38
68525;BME280;55524;51.380;13.372;2022-08-18T08:45:35;99878.25;;;29.30;39.08
68525;BME280;55524;51.380;13.372;2022-08-18T08:50:20;99877.59;;;29.28;39.06
68525;BME280;55524;51.380;13.372;2022-08-18T08:53:00;99895.84;;;29.13;40.78
68525;BME280;55524;51.380;13.372;2022-08-18T08:55:43;99887.94;;;29.18;39.20
68525;BME280;55524;51.380;13.372;2022-08-18T08:58:28;99884.03;;;29.06;39.14
68525;BME280;55524;51.380;13.372;2022-08-18T09:00:56;99888.47;;;29.07;39.90
68525;BME280;55524;51.380;13.372;2022-08-18T09:03:54;99883.06;;;29.13;40.69
68525;BME280;55524;51.380;13.372;2022-08-18T09:14:57;99879.00;;;29.82;38.45
68525;BME280;55524;51.380;13.372;2022-08-18T09:23:09;99874.06;;;30.20;37.12
68525;BME280;55524;51.380;13.372;2022-08-18T09:30:57;99857.50;;;31.52;35.58
68525;BME280;55524;51.380;13.372;2022-08-18T09:42:02;99840.16;;;31.19;35.21
68525;BME280;55524;51.380;13.372;2022-08-18T09:49:56;99826.59;;;31.98;34.03
68525;BME280;55524;51.380;13.372;2022-08-18T09:55:05;99793.72;;;33.28;30.58
68525;BME280;55524;51.380;13.372;2022-08-18T09:57:34;99800.47;;;32.36;32.22
68525;BME280;55524;51.380;13.372;2022-08-18T10:16:08;99800.75;;;32.07;33.12
68525;BME280;55524;51.380;13.372;2022-08-18T10:24:32;99798.34;;;32.31;32.67
68525;BME280;55524;51.380;13.372;2022-08-18T10:29:53;99802.41;;;32.08;33.08
68525;BME280;55524;51.380;13.372;2022-08-18T10:32:34;99809.16;;;31.73;33.68
68525;BME280;55524;51.380;13.372;2022-08-18T10:35:01;99813.34;;;31.75;33.12
68525;BME280;55524;51.380;13.372;2022-08-18T10:40:15;99820.31;;;32.04;34.30
68525;BME280;55524;51.380;13.372;2022-08-18T10:45:46;99822.59;;;31.81;33.40
68525;BME280;55524;51.380;13.372;2022-08-18T10:48:23;99815.44;;;31.67;33.61
68525;BME280;55524;51.380;13.372;2022-08-18T10:53:51;99819.38;;;31.24;34.76
68525;BME280;55524;51.380;13.372;2022-08-18T11:04:51;99814.47;;;30.93;36.45
68525;BME280;55524;51.380;13.372;2022-08-18T11:07:29;99800.66;;;31.15;34.70
68525;BME280;55524;51.380;13.372;2022-08-18T11:09:57;99796.88;;;31.22;34.40
68525;BME280;55524;51.380;13.372;2022-08-18T11:15:41;99807.00;;;31.35;34.80
68525;BME280;55524;51.380;13.372;2022-08-18T11:18:24;99806.94;;;31.15;34.91
68525;BME280;55524;51.380;13.372;2022-08-18T11:21:24;99809.69;;;31.08;34.99
68525;BME280;55524;51.380;13.372;2022-08-18T11:24:23;99803.38;;;31.15;34.46
68525;BME280;55524;51.380;13.372;2022-08-18T11:29:35;99811.09;;;30.91;35.10
68525;BME280;55524;51.380;13.372;2022-08-18T11:34:40;99806.97;;;31.08;34.47
68525;BME280;55524;51.380;13.372;2022-08-18T11:37:42;99819.69;;;30.81;34.94
68525;BME280;55524;51.380;13.372;2022-08-18T11:40:25;99825.97;;;30.82;36.44
68525;BME280;55524;51.380;13.372;2022-08-18T11:42:59;99828.56;;;30.97;35.33
68525;BME280;55524;51.380;13.372;2022-08-18T11:51:01;99847.66;;;30.55;36.73
68525;BME280;55524;51.380;13.372;2022-08-18T11:53:49;99837.50;;;30.43;37.00
68525;BME280;55524;51.380;13.372;2022-08-18T11:56:34;99846.97;;;30.47;38.02
68525;BME280;55524;51.380;13.372;2022-08-18T12:02:02;99857.13;;;30.25;38.85
68525;BME280;55524;51.380;13.372;2022-08-18T12:04:41;99871.84;;;30.09;40.17
68525;BME280;55524;51.380;13.372;2022-08-18T12:07:24;99876.44;;;30.02;41.69
68525;BME280;55524;51.380;13.372;2022-08-18T12:12:47;99888.31;;;29.51;43.85
68525;BME280;55524;51.380;13.372;2022-08-18T12:17:43;99892.88;;;29.29;44.47
68525;BME280;55524;51.380;13.372;2022-08-18T12:20:11;99902.78;;;29.15;44.83
68525;BME280;55524;51.380;13.372;2022-08-18T12:22:40;99915.59;;;29.00;45.61
68525;BME280;55524;51.380;13.372;2022-08-18T12:25:10;99925.59;;;28.85;46.73
68525;BME280;55524;51.380;13.372;2022-08-18T12:27:37;99924.47;;;28.50;47.34
68525;BME280;55524;51.380;13.372;2022-08-18T12:30:05;99936.16;;;28.35;47.35
68525;BME280;55524;51.380;13.372;2022-08-18T12:32:33;99954.19;;;28.13;48.57
68525;BME280;55524;51.380;13.372;2022-08-18T12:35:00;99954.34;;;27.97;48.88
68525;BME280;55524;51.380;13.372;2022-08-18T12:37:28;99957.19;;;27.81;49.57
68525;BME280;55524;51.380;13.372;2022-08-18T12:39:56;99962.00;;;27.62;50.03
68525;BME280;55524;51.380;13.372;2022-08-18T12:42:23;99953.13;;;27.45;50.81
68525;BME280;55524;51.380;13.372;2022-08-18T12:44:49;99959.84;;;27.27;51.14
68525;BME280;55524;51.380;13.372;2022-08-18T12:47:23;99951.88;;;27.25;51.79
68525;BME280;55524;51.380;13.372;2022-08-18T12:49:50;99963.97;;;27.14;51.54
68525;BME280;55524;51.380;13.372;2022-08-18T12:52:18;99952.81;;;27.01;52.19
68525;BME280;55524;51.380;13.372;2022-08-18T12:54:45;99953.31;;;27.05;51.92
68525;BME280;55524;51.380;13.372;2022-08-18T12:57:23;99960.13;;;27.01;51.95
68525;BME280;55524;51.380;13.372;2022-08-18T12:59:50;99962.31;;;26.97;52.01
68525;BME280;55524;51.380;13.372;2022-08-18T13:02:17;99964.00;;;26.98;51.90
68525;BME280;55524;51.380;13.372;2022-08-18T13:04:43;99963.13;;;27.06;52.40
68525;BME280;55524;51.380;13.372;2022-08-18T13:07:11;99961.25;;;27.14;52.47
68525;BME280;55524;51.380;13.372;2022-08-18T13:09:39;99950.50;;;27.29;51.39
68525;BME280;55524;51.380;13.372;2022-08-18T13:12:05;99932.34;;;27.61;50.47
68525;BME280;55524;51.380;13.372;2022-08-18T13:14:32;99924.41;;;28.35;49.03
68525;BME280;55524;51.380;13.372;2022-08-18T13:16:59;99901.28;;;29.13;47.09
68525;BME280;55524;51.380;13.372;2022-08-18T13:19:25;99905.63;;;28.92;47.07
68525;BME280;55524;51.380;13.372;2022-08-18T13:21:51;99911.53;;;28.52;48.37
68525;BME280;55524;51.380;13.372;2022-08-18T13:24:18;99916.13;;;28.13;49.38
68525;BME280;55524;51.380;13.372;2022-08-18T13:26:45;99918.34;;;27.95;49.49
68525;BME280;55524;51.380;13.372;2022-08-18T13:29:13;99909.59;;;27.85;50.11
68525;BME280;55524;51.380;13.372;2022-08-18T13:31:42;99908.47;;;27.71;50.62
68525;BME280;55524;51.380;13.372;2022-08-18T13:34:09;99902.31;;;27.54;50.93
68525;BME280;55524;51.380;13.372;2022-08-18T13:36:35;99913.81;;;27.64;50.59
68525;BME280;55524;51.380;13.372;2022-08-18T13:39:14;99902.16;;;27.79;50.36
68525;BME280;55524;51.380;13.372;2022-08-18T13:41:42;99902.56;;;27.67;50.75
68525;BME280;55524;51.380;13.372;2022-08-18T13:44:10;99898.50;;;27.63;50.55
68525;BME280;55524;51.380;13.372;2022-08-18T13:46:38;99902.41;;;27.69;50.51
68525;BME280;55524;51.380;13.372;2022-08-18T13:49:14;99902.03;;;27.72;50.44
68525;BME280;55524;51.380;13.372;2022-08-18T13:51:42;99895.94;;;27.93;50.18
68525;BME280;55524;51.380;13.372;2022-08-18T13:54:15;99896.66;;;27.87;49.94
68525;BME280;55524;51.380;13.372;2022-08-18T13:56:43;99894.72;;;27.73;49.99
68525;BME280;55524;51.380;13.372;2022-08-18T13:59:11;99890.31;;;27.80;50.14
68525;BME280;55524;51.380;13.372;2022-08-18T14:01:37;99889.13;;;27.97;49.86
68525;BME280;55524;51.380;13.372;2022-08-18T14:04:05;99878.81;;;28.07;49.77
68525;BME280;55524;51.380;13.372;2022-08-18T14:06:32;99868.06;;;28.14;49.17
68525;BME280;55524;51.380;13.372;2022-08-18T14:08:58;99879.09;;;28.50;48.27
68525;BME280;55524;51.380;13.372;2022-08-18T14:11:28;99886.03;;;28.15;49.28
68525;BME280;55524;51.380;13.372;2022-08-18T14:13:55;99891.75;;;28.05;49.46
68525;BME280;55524;51.380;13.372;2022-08-18T14:16:23;99896.38;;;27.82;50.46
68525;BME280;55524;51.380;13.372;2022-08-18T14:18:50;99895.41;;;27.75;50.18
68525;BME280;55524;51.380;13.372;2022-08-18T14:21:43;99899.78;;;27.84;50.10
68525;BME280;55524;51.380;13.372;2022-08-18T14:24:29;99905.25;;;27.76;50.46
68525;BME280;55524;51.380;13.372;2022-08-18T14:27:15;99910.06;;;27.65;50.56
68525;BME280;55524;51.380;13.372;2022-08-18T14:29:42;99916.53;;;27.64;50.32
68525;BME280;55524;51.380;13.372;2022-08-18T14:32:10;99904.59;;;27.74;50.19
68525;BME280;55524;51.380;13.372;2022-08-18T14:34:37;99904.88;;;27.79;50.28
68525;BME280;55524;51.380;13.372;2022-08-18T14:37:03;99902.03;;;27.72;50.18
68525;BME280;55524;51.380;13.372;2022-08-18T14:39:29;99895.06;;;27.78;50.66
68525;BME280;55524;51.380;13.372;2022-08-18T14:41:56;99897.19;;;27.59;50.82
68525;BME280;55524;51.380;13.372;2022-08-18T14:44:23;99897.31;;;27.66;50.77
68525;BME280;55524;51.380;13.372;2022-08-18T14:46:49;99901.63;;;27.60;50.50
68525;BME280;55524;51.380;13.372;2022-08-18T14:49:15;99892.44;;;27.61;50.59
68525;BME280;55524;51.380;13.372;2022-08-18T14:51:42;99887.31;;;27.66;50.23
68525;BME280;55524;51.380;13.372;2022-08-18T14:54:11;99885.59;;;27.74;50.23
68525;BME280;55524;51.380;13.372;2022-08-18T14:56:39;99875.59;;;27.66;50.44
68525;BME280;55524;51.380;13.372;2022-08-18T14:59:08;99879.63;;;27.47;50.85
68525;BME280;55524;51.380;13.372;2022-08-18T15:01:37;99880.03;;;27.36;51.54
68525;BME280;55524;51.380;13.372;2022-08-18T15:04:04;99878.09;;;27.53;51.57
68525;BME280;55524;51.380;13.372;2022-08-18T15:06:30;99880.97;;;27.51;52.42
68525;BME280;55524;51.380;13.372;2022-08-18T15:08:56;99864.13;;;27.56;51.33
68525;BME280;55524;51.380;13.372;2022-08-18T15:11:23;99871.31;;;27.49;51.97
68525;BME280;55524;51.380;13.372;2022-08-18T15:13:50;99872.28;;;27.56;51.97
68525;BME280;55524;51.380;13.372;2022-08-18T15:16:16;99860.88;;;27.60;52.09
68525;BME280;55524;51.380;13.372;2022-08-18T15:18:44;99844.53;;;27.68;51.48
68525;BME280;55524;51.380;13.372;2022-08-18T15:21:11;99843.13;;;27.73;51.39
68525;BME280;55524;51.380;13.372;2022-08-18T15:23:57;99838.69;;;27.80;50.71
68525;BME280;55524;51.380;13.372;2022-08-18T15:26:41;99848.44;;;27.66;51.21
68525;BME280;55524;51.380;13.372;2022-08-18T15:29:10;99857.50;;;27.81;50.79
68525;BME280;55524;51.380;13.372;2022-08-18T15:31:37;99853.28;;;27.79;50.97
68525;BME280;55524;51.380;13.372;2022-08-18T15:34:04;99843.56;;;27.99;50.49
68525;BME280;55524;51.380;13.372;2022-08-18T15:36:31;99841.06;;;27.98;50.01
68525;BME280;55524;51.380;13.372;2022-08-18T15:38:59;99838.72;;;28.09;49.55
68525;BME280;55524;51.380;13.372;2022-08-18T15:41:37;99824.59;;;28.58;48.46
68525;BME280;55524;51.380;13.372;2022-08-18T15:44:05;99825.03;;;28.77;48.08
68525;BME280;55524;51.380;13.372;2022-08-18T15:46:35;99815.09;;;28.84;47.82
68525;BME280;55524;51.380;13.372;2022-08-18T15:49:03;99808.88;;;28.90;47.30
68525;BME280;55524;51.380;13.372;2022-08-18T15:51:33;99809.13;;;29.10;47.52
68525;BME280;55524;51.380;13.372;2022-08-18T15:54:00;99813.22;;;28.99;47.70
68525;BME280;55524;51.380;13.372;2022-08-18T15:56:26;99803.88;;;29.08;46.91
68525;BME280;55524;51.380;13.372;2022-08-18T15:58:53;99805.31;;;29.04;47.06
68525;BME280;55524;51.380;13.372;2022-08-18T16:01:22;99796.69;;;29.44;46.34
68525;BME280;55524;51.380;13.372;2022-08-18T16:03:49;99799.28;;;29.30;46.42
68525;BME280;55524;51.380;13.372;2022-08-18T16:06:20;99793.31;;;29.20;46.63
68525;BME280;55524;51.380;13.372;2022-08-18T16:08:49;99787.75;;;29.07;46.70
68525;BME280;55524;51.380;13.372;2022-08-18T16:11:16;99789.19;;;29.03;46.93